sensor_id;sensor_type;location;lat;lon;timestamp;P1;durP1;ratioP1;P2;durP2;ratioP2
74777;SDS011;63298;53.164;8.610;2022-10-22T00:00:13;12.30;;;6.72;;
74777;SDS011;63298;53.164;8.610;2022-10-22T00:02:40;13.40;;;6.72;;
74777;SDS011;63298;53.164;8.610;2022-10-22T00:05:07;19.83;;;7.15;;
74777;SDS011;63298;53.164;8.610;2022-10-22T00:07:33;9.50;;;6.30;;
74777;SDS011;63298;53.164;8.610;2022-10-22T00:09:59;35.30;;;7.20;;
74777;SDS011;63298;53.164;8.610;2022-10-22T00:12:24;32.25;;;6.95;;
74777;SDS011;63298;53.164;8.610;2022-10-22T00:14:50;17.95;;;6.60;;
74777;SDS011;63298;53.164;8.610;2022-10-22T00:17:15;20.20;;;6.78;;
74777;SDS011;63298;53.164;8.610;2022-10-22T00:19:41;21.02;;;7.40;;
74777;SDS011;63298;53.164;8.610;2022-10-22T00:22:07;13.18;;;5.55;;
74777;SDS011;63298;53.164;8.610;2022-10-22T00:24:33;21.08;;;6.13;;
74777;SDS011;63298;53.164;8.610;2022-10-22T00:26:59;17.40;;;6.38;;
74777;SDS011;63298;53.164;8.610;2022-10-22T00:29:25;10.85;;;6.72;;
74777;SDS011;63298;53.164;8.610;2022-10-22T00:31:50;12.18;;;5.72;;
74777;SDS011;63298;53.164;8.610;2022-10-22T00:34:16;52.97;;;6.85;;
74777;SDS011;63298;53.164;8.610;2022-10-22T00:36:43;9.75;;;5.60;;
74777;SDS011;63298;53.164;8.610;2022-10-22T00:39:09;11.02;;;5.90;;
74777;SDS011;63298;53.164;8.610;2022-10-22T00:41:34;7.88;;;5.65;;
74777;SDS011;63298;53.164;8.610;2022-10-22T00:44:01;54.60;;;7.53;;
74777;SDS011;63298;53.164;8.610;2022-10-22T00:46:28;30.83;;;6.32;;
74777;SDS011;63298;53.164;8.610;2022-10-22T00:48:54;12.73;;;5.60;;
74777;SDS011;63298;53.164;8.610;2022-10-22T00:51:23;12.82;;;5.70;;
74777;SDS011;63298;53.164;8.610;2022-10-22T00:53:56;14.27;;;5.00;;
74777;SDS011;63298;53.164;8.610;2022-10-22T00:56:26;40.15;;;5.97;;
74777;SDS011;63298;53.164;8.610;2022-10-22T00:58:54;74.97;;;6.40;;
74777;SDS011;63298;53.164;8.610;2022-10-22T01:01:25;9.30;;;4.72;;
74777;SDS011;63298;53.164;8.610;2022-10-22T01:03:54;11.52;;;5.03;;
74777;SDS011;63298;53.164;8.610;2022-10-22T01:06:24;21.55;;;4.97;;
74777;SDS011;63298;53.164;8.610;2022-10-22T01:11:51;8.13;;;4.75;;
74777;SDS011;63298;53.164;8.610;2022-10-22T01:14:26;9.60;;;5.03;;
74777;SDS011;63298;53.164;8.610;2022-10-22T01:17:05;40.22;;;5.75;;
74777;SDS011;63298;53.164;8.610;2022-10-22T01:27:56;10.90;;;5.45;;
74777;SDS011;63298;53.164;8.610;2022-10-22T01:30:33;24.45;;;5.25;;
74777;SDS011;63298;53.164;8.610;2022-10-22T01:33:02;19.48;;;5.15;;
74777;SDS011;63298;53.164;8.610;2022-10-22T01:38:00;16.27;;;5.28;;
74777;SDS011;63298;53.164;8.610;2022-10-22T01:40:30;12.80;;;5.47;;
74777;SDS011;63298;53.164;8.610;2022-10-22T01:43:04;18.77;;;5.75;;
74777;SDS011;63298;53.164;8.610;2022-10-22T01:45:33;7.95;;;5.88;;
74777;SDS011;63298;53.164;8.610;2022-10-22T01:57:32;5.90;;;5.10;;
74777;SDS011;63298;53.164;8.610;2022-10-22T02:00:05;53.50;;;6.55;;
74777;SDS011;63298;53.164;8.610;2022-10-22T02:05:37;6.38;;;5.10;;
74777;SDS011;63298;53.164;8.610;2022-10-22T02:08:11;12.93;;;5.95;;
74777;SDS011;63298;53.164;8.610;2022-10-22T02:10:42;10.65;;;5.38;;
74777;SDS011;63298;53.164;8.610;2022-10-22T02:13:17;7.18;;;5.30;;
74777;SDS011;63298;53.164;8.610;2022-10-22T02:16:05;6.68;;;5.45;;
74777;SDS011;63298;53.164;8.610;2022-10-22T02:18:33;15.10;;;5.95;;
74777;SDS011;63298;53.164;8.610;2022-10-22T02:21:02;6.28;;;5.30;;
74777;SDS011;63298;53.164;8.610;2022-10-22T02:23:27;6.07;;;5.35;;
74777;SDS011;63298;53.164;8.610;2022-10-22T02:25:55;6.18;;;4.72;;
74777;SDS011;63298;53.164;8.610;2022-10-22T02:31:18;5.00;;;4.10;;
74777;SDS011;63298;53.164;8.610;2022-10-22T02:33:50;5.47;;;4.47;;
74777;SDS011;63298;53.164;8.610;2022-10-22T02:36:19;9.80;;;5.15;;
74777;SDS011;63298;53.164;8.610;2022-10-22T02:38:47;7.88;;;4.95;;
74777;SDS011;63298;53.164;8.610;2022-10-22T02:43:44;5.65;;;4.40;;
74777;SDS011;63298;53.164;8.610;2022-10-22T02:46:15;7.97;;;5.30;;
74777;SDS011;63298;53.164;8.610;2022-10-22T02:48:41;8.30;;;5.10;;
74777;SDS011;63298;53.164;8.610;2022-10-22T02:51:07;6.05;;;5.30;;
74777;SDS011;63298;53.164;8.610;2022-10-22T02:53:33;5.45;;;4.63;;
74777;SDS011;63298;53.164;8.610;2022-10-22T02:55:59;8.73;;;5.10;;
74777;SDS011;63298;53.164;8.610;2022-10-22T02:58:25;6.68;;;5.05;;
74777;SDS011;63298;53.164;8.610;2022-10-22T03:00:52;6.55;;;4.60;;
74777;SDS011;63298;53.164;8.610;2022-10-22T03:03:20;8.73;;;5.00;;
74777;SDS011;63298;53.164;8.610;2022-10-22T03:05:46;6.63;;;5.18;;
74777;SDS011;63298;53.164;8.610;2022-10-22T03:08:12;7.43;;;5.05;;
74777;SDS011;63298;53.164;8.610;2022-10-22T03:10:40;5.95;;;4.60;;
74777;SDS011;63298;53.164;8.610;2022-10-22T03:13:06;5.07;;;4.55;;
74777;SDS011;63298;53.164;8.610;2022-10-22T03:15:32;5.75;;;4.20;;
74777;SDS011;63298;53.164;8.610;2022-10-22T03:17:59;8.40;;;4.70;;
74777;SDS011;63298;53.164;8.610;2022-10-22T03:20:26;4.60;;;4.18;;
74777;SDS011;63298;53.164;8.610;2022-10-22T03:22:52;4.95;;;4.47;;
74777;SDS011;63298;53.164;8.610;2022-10-22T03:25:18;6.25;;;4.22;;
74777;SDS011;63298;53.164;8.610;2022-10-22T03:27:46;4.95;;;4.43;;
74777;SDS011;63298;53.164;8.610;2022-10-22T03:30:16;9.10;;;4.30;;
74777;SDS011;63298;53.164;8.610;2022-10-22T03:32:42;9.40;;;5.47;;
74777;SDS011;63298;53.164;8.610;2022-10-22T03:35:08;8.73;;;5.28;;
74777;SDS011;63298;53.164;8.610;2022-10-22T03:37:34;11.75;;;5.30;;
74777;SDS011;63298;53.164;8.610;2022-10-22T03:40:01;14.00;;;5.28;;
74777;SDS011;63298;53.164;8.610;2022-10-22T03:42:29;12.38;;;5.45;;
74777;SDS011;63298;53.164;8.610;2022-10-22T03:44:54;7.78;;;4.95;;
74777;SDS011;63298;53.164;8.610;2022-10-22T03:47:20;5.85;;;4.50;;
74777;SDS011;63298;53.164;8.610;2022-10-22T03:49:45;8.25;;;4.47;;
74777;SDS011;63298;53.164;8.610;2022-10-22T03:52:12;25.02;;;5.65;;
74777;SDS011;63298;53.164;8.610;2022-10-22T03:54:38;5.88;;;4.72;;
74777;SDS011;63298;53.164;8.610;2022-10-22T03:57:04;25.02;;;6.18;;
74777;SDS011;63298;53.164;8.610;2022-10-22T03:59:37;15.85;;;5.47;;
74777;SDS011;63298;53.164;8.610;2022-10-22T04:02:04;7.82;;;5.05;;
74777;SDS011;63298;53.164;8.610;2022-10-22T04:04:30;7.38;;;5.30;;
74777;SDS011;63298;53.164;8.610;2022-10-22T04:06:55;10.15;;;4.90;;
74777;SDS011;63298;53.164;8.610;2022-10-22T04:09:21;23.98;;;5.35;;
74777;SDS011;63298;53.164;8.610;2022-10-22T04:11:47;7.47;;;5.28;;
74777;SDS011;63298;53.164;8.610;2022-10-22T04:14:12;8.63;;;4.85;;
74777;SDS011;63298;53.164;8.610;2022-10-22T04:16:38;7.15;;;5.25;;
74777;SDS011;63298;53.164;8.610;2022-10-22T04:19:04;5.55;;;4.85;;
74777;SDS011;63298;53.164;8.610;2022-10-22T04:21:30;10.20;;;5.35;;
74777;SDS011;63298;53.164;8.610;2022-10-22T04:23:56;8.90;;;5.47;;
74777;SDS011;63298;53.164;8.610;2022-10-22T04:26:22;7.18;;;4.88;;
74777;SDS011;63298;53.164;8.610;2022-10-22T04:28:48;7.07;;;4.93;;
74777;SDS011;63298;53.164;8.610;2022-10-22T04:31:16;9.05;;;5.53;;
74777;SDS011;63298;53.164;8.610;2022-10-22T04:33:43;5.82;;;4.80;;
74777;SDS011;63298;53.164;8.610;2022-10-22T04:36:10;4.30;;;3.90;;
74777;SDS011;63298;53.164;8.610;2022-10-22T04:38:38;5.32;;;4.68;;
74777;SDS011;63298;53.164;8.610;2022-10-22T04:41:11;7.68;;;4.70;;
74777;SDS011;63298;53.164;8.610;2022-10-22T04:43:39;10.27;;;4.65;;
74777;SDS011;63298;53.164;8.610;2022-10-22T04:46:05;5.82;;;3.88;;
74777;SDS011;63298;53.164;8.610;2022-10-22T04:48:31;4.30;;;3.90;;
74777;SDS011;63298;53.164;8.610;2022-10-22T04:50:57;4.63;;;4.18;;
74777;SDS011;63298;53.164;8.610;2022-10-22T04:53:22;11.02;;;4.47;;
74777;SDS011;63298;53.164;8.610;2022-10-22T04:55:48;5.97;;;4.47;;
74777;SDS011;63298;53.164;8.610;2022-10-22T04:58:13;9.98;;;5.15;;
74777;SDS011;63298;53.164;8.610;2022-10-22T05:00:39;11.20;;;5.20;;
74777;SDS011;63298;53.164;8.610;2022-10-22T05:03:04;12.43;;;5.63;;
74777;SDS011;63298;53.164;8.610;2022-10-22T05:05:30;5.55;;;4.53;;
74777;SDS011;63298;53.164;8.610;2022-10-22T05:07:56;41.53;;;6.43;;
74777;SDS011;63298;53.164;8.610;2022-10-22T05:10:22;15.23;;;5.72;;
74777;SDS011;63298;53.164;8.610;2022-10-22T05:12:47;10.88;;;5.57;;
74777;SDS011;63298;53.164;8.610;2022-10-22T05:15:12;16.67;;;5.53;;
74777;SDS011;63298;53.164;8.610;2022-10-22T05:17:38;15.85;;;6.13;;
74777;SDS011;63298;53.164;8.610;2022-10-22T05:20:04;28.13;;;5.78;;
74777;SDS011;63298;53.164;8.610;2022-10-22T05:22:29;9.50;;;5.40;;
74777;SDS011;63298;53.164;8.610;2022-10-22T05:24:55;13.80;;;5.00;;
74777;SDS011;63298;53.164;8.610;2022-10-22T05:27:23;9.75;;;5.15;;
74777;SDS011;63298;53.164;8.610;2022-10-22T05:29:48;20.17;;;5.43;;
74777;SDS011;63298;53.164;8.610;2022-10-22T05:32:14;7.57;;;5.10;;
74777;SDS011;63298;53.164;8.610;2022-10-22T05:34:39;5.57;;;4.63;;
74777;SDS011;63298;53.164;8.610;2022-10-22T05:37:04;9.45;;;5.50;;
74777;SDS011;63298;53.164;8.610;2022-10-22T05:39:30;16.83;;;5.82;;
74777;SDS011;63298;53.164;8.610;2022-10-22T05:41:55;9.73;;;6.93;;
74777;SDS011;63298;53.164;8.610;2022-10-22T05:47:39;9.68;;;5.20;;
74777;SDS011;63298;53.164;8.610;2022-10-22T05:50:04;6.10;;;4.20;;
74777;SDS011;63298;53.164;8.610;2022-10-22T05:52:30;5.70;;;4.90;;
74777;SDS011;63298;53.164;8.610;2022-10-22T05:54:55;10.45;;;4.38;;
74777;SDS011;63298;53.164;8.610;2022-10-22T05:57:20;6.65;;;4.30;;
74777;SDS011;63298;53.164;8.610;2022-10-22T05:59:46;8.93;;;5.78;;
74777;SDS011;63298;53.164;8.610;2022-10-22T06:02:11;10.30;;;4.50;;
74777;SDS011;63298;53.164;8.610;2022-10-22T06:04:37;7.50;;;4.60;;
74777;SDS011;63298;53.164;8.610;2022-10-22T06:07:02;5.15;;;4.45;;
74777;SDS011;63298;53.164;8.610;2022-10-22T06:09:28;6.47;;;4.55;;
74777;SDS011;63298;53.164;8.610;2022-10-22T06:11:56;8.68;;;5.30;;
74777;SDS011;63298;53.164;8.610;2022-10-22T06:14:22;13.40;;;5.20;;
74777;SDS011;63298;53.164;8.610;2022-10-22T06:16:47;5.55;;;3.97;;
74777;SDS011;63298;53.164;8.610;2022-10-22T06:19:14;8.13;;;4.40;;
74777;SDS011;63298;53.164;8.610;2022-10-22T06:21:41;5.63;;;4.20;;
74777;SDS011;63298;53.164;8.610;2022-10-22T06:24:08;6.18;;;4.55;;
74777;SDS011;63298;53.164;8.610;2022-10-22T06:29:27;8.35;;;5.75;;
74777;SDS011;63298;53.164;8.610;2022-10-22T06:31:53;13.15;;;5.80;;
74777;SDS011;63298;53.164;8.610;2022-10-22T06:34:19;8.93;;;5.55;;
74777;SDS011;63298;53.164;8.610;2022-10-22T06:36:45;10.25;;;6.00;;
74777;SDS011;63298;53.164;8.610;2022-10-22T06:39:11;6.90;;;4.82;;
74777;SDS011;63298;53.164;8.610;2022-10-22T06:41:37;6.70;;;4.97;;
74777;SDS011;63298;53.164;8.610;2022-10-22T06:44:03;7.25;;;5.20;;
74777;SDS011;63298;53.164;8.610;2022-10-22T06:46:28;7.32;;;5.00;;
74777;SDS011;63298;53.164;8.610;2022-10-22T06:48:57;6.70;;;4.85;;
74777;SDS011;63298;53.164;8.610;2022-10-22T06:51:24;8.80;;;4.68;;
74777;SDS011;63298;53.164;8.610;2022-10-22T06:53:50;7.80;;;4.45;;
74777;SDS011;63298;53.164;8.610;2022-10-22T06:56:17;6.97;;;4.88;;
74777;SDS011;63298;53.164;8.610;2022-10-22T06:58:46;6.13;;;4.57;;
74777;SDS011;63298;53.164;8.610;2022-10-22T07:01:12;6.68;;;4.25;;
74777;SDS011;63298;53.164;8.610;2022-10-22T07:03:39;10.20;;;5.30;;
74777;SDS011;63298;53.164;8.610;2022-10-22T07:06:08;8.95;;;5.20;;
74777;SDS011;63298;53.164;8.610;2022-10-22T07:08:35;9.75;;;5.28;;
74777;SDS011;63298;53.164;8.610;2022-10-22T07:11:08;13.88;;;5.97;;
74777;SDS011;63298;53.164;8.610;2022-10-22T07:13:34;7.10;;;5.20;;
74777;SDS011;63298;53.164;8.610;2022-10-22T07:16:00;8.80;;;6.13;;
74777;SDS011;63298;53.164;8.610;2022-10-22T07:18:26;8.60;;;6.45;;
74777;SDS011;63298;53.164;8.610;2022-10-22T07:20:52;11.27;;;6.63;;
74777;SDS011;63298;53.164;8.610;2022-10-22T07:23:18;8.73;;;5.85;;
74777;SDS011;63298;53.164;8.610;2022-10-22T07:29:00;10.15;;;6.57;;
74777;SDS011;63298;53.164;8.610;2022-10-22T07:31:25;9.00;;;6.93;;
74777;SDS011;63298;53.164;8.610;2022-10-22T07:33:51;8.95;;;6.65;;
74777;SDS011;63298;53.164;8.610;2022-10-22T07:36:17;9.40;;;7.35;;
74777;SDS011;63298;53.164;8.610;2022-10-22T07:38:43;10.30;;;6.97;;
74777;SDS011;63298;53.164;8.610;2022-10-22T07:41:09;14.10;;;7.93;;
74777;SDS011;63298;53.164;8.610;2022-10-22T07:43:35;13.45;;;7.90;;
74777;SDS011;63298;53.164;8.610;2022-10-22T07:46:00;10.93;;;7.00;;
74777;SDS011;63298;53.164;8.610;2022-10-22T07:48:26;13.02;;;6.97;;
74777;SDS011;63298;53.164;8.610;2022-10-22T07:50:51;14.30;;;7.60;;
74777;SDS011;63298;53.164;8.610;2022-10-22T07:53:17;13.68;;;8.30;;
74777;SDS011;63298;53.164;8.610;2022-10-22T07:55:45;11.80;;;7.00;;
74777;SDS011;63298;53.164;8.610;2022-10-22T07:58:12;10.95;;;7.45;;
74777;SDS011;63298;53.164;8.610;2022-10-22T08:00:37;13.50;;;7.60;;
74777;SDS011;63298;53.164;8.610;2022-10-22T08:03:03;11.93;;;8.00;;
74777;SDS011;63298;53.164;8.610;2022-10-22T08:05:28;11.35;;;7.40;;
74777;SDS011;63298;53.164;8.610;2022-10-22T08:07:54;15.25;;;8.25;;
74777;SDS011;63298;53.164;8.610;2022-10-22T08:10:20;14.32;;;8.05;;
74777;SDS011;63298;53.164;8.610;2022-10-22T08:12:45;11.48;;;7.47;;
74777;SDS011;63298;53.164;8.610;2022-10-22T08:15:11;12.02;;;6.68;;
74777;SDS011;63298;53.164;8.610;2022-10-22T08:17:37;11.38;;;6.70;;
74777;SDS011;63298;53.164;8.610;2022-10-22T08:20:02;11.27;;;7.10;;
74777;SDS011;63298;53.164;8.610;2022-10-22T08:22:28;13.23;;;8.18;;
74777;SDS011;63298;53.164;8.610;2022-10-22T08:24:54;12.25;;;6.57;;
74777;SDS011;63298;53.164;8.610;2022-10-22T08:27:19;10.15;;;7.05;;
74777;SDS011;63298;53.164;8.610;2022-10-22T08:29:45;10.48;;;7.10;;
74777;SDS011;63298;53.164;8.610;2022-10-22T08:32:10;12.32;;;6.70;;
74777;SDS011;63298;53.164;8.610;2022-10-22T08:34:36;10.98;;;7.18;;
74777;SDS011;63298;53.164;8.610;2022-10-22T08:37:01;13.27;;;7.75;;
74777;SDS011;63298;53.164;8.610;2022-10-22T08:39:27;12.40;;;6.60;;
74777;SDS011;63298;53.164;8.610;2022-10-22T08:49:45;10.25;;;6.50;;
74777;SDS011;63298;53.164;8.610;2022-10-22T08:52:11;13.20;;;6.85;;
74777;SDS011;63298;53.164;8.610;2022-10-22T08:58:00;15.23;;;6.95;;
74777;SDS011;63298;53.164;8.610;2022-10-22T09:00:27;8.48;;;5.68;;
74777;SDS011;63298;53.164;8.610;2022-10-22T09:03:09;12.65;;;5.53;;
74777;SDS011;63298;53.164;8.610;2022-10-22T09:08:37;13.45;;;6.10;;
74777;SDS011;63298;53.164;8.610;2022-10-22T09:14:01;10.05;;;5.03;;
74777;SDS011;63298;53.164;8.610;2022-10-22T09:21:32;10.07;;;5.38;;
74777;SDS011;63298;53.164;8.610;2022-10-22T09:24:15;7.72;;;4.10;;
74777;SDS011;63298;53.164;8.610;2022-10-22T09:26:50;10.23;;;4.53;;
74777;SDS011;63298;53.164;8.610;2022-10-22T09:29:17;8.05;;;4.63;;
74777;SDS011;63298;53.164;8.610;2022-10-22T09:31:46;11.30;;;4.90;;
74777;SDS011;63298;53.164;8.610;2022-10-22T09:34:13;8.43;;;4.63;;
74777;SDS011;63298;53.164;8.610;2022-10-22T09:36:39;8.70;;;4.43;;
74777;SDS011;63298;53.164;8.610;2022-10-22T09:39:13;6.70;;;4.43;;
74777;SDS011;63298;53.164;8.610;2022-10-22T09:41:46;6.72;;;4.47;;
74777;SDS011;63298;53.164;8.610;2022-10-22T09:44:12;7.13;;;4.25;;
74777;SDS011;63298;53.164;8.610;2022-10-22T09:46:38;11.68;;;4.82;;
74777;SDS011;63298;53.164;8.610;2022-10-22T09:49:05;9.15;;;4.20;;
74777;SDS011;63298;53.164;8.610;2022-10-22T09:51:39;8.68;;;4.50;;
74777;SDS011;63298;53.164;8.610;2022-10-22T09:54:13;15.00;;;4.78;;
74777;SDS011;63298;53.164;8.610;2022-10-22T09:56:51;11.25;;;4.97;;
74777;SDS011;63298;53.164;8.610;2022-10-22T09:59:23;9.95;;;4.63;;
74777;SDS011;63298;53.164;8.610;2022-10-22T10:01:58;12.68;;;4.20;;
74777;SDS011;63298;53.164;8.610;2022-10-22T10:04:27;8.88;;;4.50;;
74777;SDS011;63298;53.164;8.610;2022-10-22T10:06:54;6.57;;;3.90;;
74777;SDS011;63298;53.164;8.610;2022-10-22T10:09:20;6.95;;;4.30;;
74777;SDS011;63298;53.164;8.610;2022-10-22T10:16:50;9.57;;;4.38;;
74777;SDS011;63298;53.164;8.610;2022-10-22T10:19:23;10.45;;;3.80;;
74777;SDS011;63298;53.164;8.610;2022-10-22T10:22:14;11.38;;;4.35;;
74777;SDS011;63298;53.164;8.610;2022-10-22T10:31:04;11.75;;;4.72;;
74777;SDS011;63298;53.164;8.610;2022-10-22T10:36:39;17.02;;;3.72;;
74777;SDS011;63298;53.164;8.610;2022-10-22T10:42:32;6.30;;;3.17;;
74777;SDS011;63298;53.164;8.610;2022-10-22T10:44:54;10.57;;;3.70;;
74777;SDS011;63298;53.164;8.610;2022-10-22T10:56:29;5.93;;;2.83;;
74777;SDS011;63298;53.164;8.610;2022-10-22T10:59:07;7.40;;;2.63;;
74777;SDS011;63298;53.164;8.610;2022-10-22T11:06:53;15.60;;;3.38;;
74777;SDS011;63298;53.164;8.610;2022-10-22T11:09:26;8.43;;;3.00;;
74777;SDS011;63298;53.164;8.610;2022-10-22T11:12:00;8.55;;;2.78;;
74777;SDS011;63298;53.164;8.610;2022-10-22T11:14:50;5.72;;;2.90;;
74777;SDS011;63298;53.164;8.610;2022-10-22T11:22:41;9.45;;;3.17;;
74777;SDS011;63298;53.164;8.610;2022-10-22T11:32:37;8.10;;;2.90;;
74777;SDS011;63298;53.164;8.610;2022-10-22T11:35:06;7.20;;;2.10;;
74777;SDS011;63298;53.164;8.610;2022-10-22T11:37:37;10.55;;;2.40;;
74777;SDS011;63298;53.164;8.610;2022-10-22T11:40:07;9.00;;;2.58;;
74777;SDS011;63298;53.164;8.610;2022-10-22T11:42:40;7.25;;;2.20;;
74777;SDS011;63298;53.164;8.610;2022-10-22T11:47:56;5.18;;;2.28;;
74777;SDS011;63298;53.164;8.610;2022-10-22T11:50:47;5.18;;;2.10;;
74777;SDS011;63298;53.164;8.610;2022-10-22T11:55:50;5.68;;;1.98;;
74777;SDS011;63298;53.164;8.610;2022-10-22T11:58:27;9.75;;;2.70;;
74777;SDS011;63298;53.164;8.610;2022-10-22T12:01:17;6.30;;;1.77;;
74777;SDS011;63298;53.164;8.610;2022-10-22T12:03:53;4.70;;;2.28;;
74777;SDS011;63298;53.164;8.610;2022-10-22T12:06:54;7.60;;;2.03;;
74777;SDS011;63298;53.164;8.610;2022-10-22T12:09:22;7.20;;;2.10;;
74777;SDS011;63298;53.164;8.610;2022-10-22T12:11:48;11.30;;;3.05;;
74777;SDS011;63298;53.164;8.610;2022-10-22T12:14:24;13.20;;;2.65;;
74777;SDS011;63298;53.164;8.610;2022-10-22T12:16:55;11.40;;;2.67;;
74777;SDS011;63298;53.164;8.610;2022-10-22T12:19:28;7.68;;;2.38;;
74777;SDS011;63298;53.164;8.610;2022-10-22T12:24:51;9.20;;;3.03;;
74777;SDS011;63298;53.164;8.610;2022-10-22T12:27:19;7.70;;;2.20;;
74777;SDS011;63298;53.164;8.610;2022-10-22T12:29:47;8.88;;;2.85;;
74777;SDS011;63298;53.164;8.610;2022-10-22T12:32:14;6.50;;;2.28;;
74777;SDS011;63298;53.164;8.610;2022-10-22T12:34:50;5.28;;;2.17;;
74777;SDS011;63298;53.164;8.610;2022-10-22T12:37:17;10.98;;;3.30;;
74777;SDS011;63298;53.164;8.610;2022-10-22T12:39:44;5.85;;;1.98;;
74777;SDS011;63298;53.164;8.610;2022-10-22T12:42:12;5.60;;;2.05;;
74777;SDS011;63298;53.164;8.610;2022-10-22T12:44:39;5.93;;;2.33;;
74777;SDS011;63298;53.164;8.610;2022-10-22T12:47:10;9.20;;;2.17;;
74777;SDS011;63298;53.164;8.610;2022-10-22T12:49:41;3.17;;;1.90;;
74777;SDS011;63298;53.164;8.610;2022-10-22T12:52:15;7.90;;;2.13;;
74777;SDS011;63298;53.164;8.610;2022-10-22T12:54:44;10.27;;;2.40;;
74777;SDS011;63298;53.164;8.610;2022-10-22T12:57:12;7.22;;;2.40;;
74777;SDS011;63298;53.164;8.610;2022-10-22T12:59:43;4.38;;;2.38;;
74777;SDS011;63298;53.164;8.610;2022-10-22T13:04:40;6.22;;;2.42;;
74777;SDS011;63298;53.164;8.610;2022-10-22T13:09:39;7.07;;;2.08;;
74777;SDS011;63298;53.164;8.610;2022-10-22T13:12:33;7.15;;;2.55;;
74777;SDS011;63298;53.164;8.610;2022-10-22T13:15:17;10.77;;;2.97;;
74777;SDS011;63298;53.164;8.610;2022-10-22T13:18:04;7.20;;;2.17;;
74777;SDS011;63298;53.164;8.610;2022-10-22T13:20:48;9.75;;;2.75;;
74777;SDS011;63298;53.164;8.610;2022-10-22T13:23:25;7.15;;;2.53;;
74777;SDS011;63298;53.164;8.610;2022-10-22T13:26:00;6.75;;;2.65;;
74777;SDS011;63298;53.164;8.610;2022-10-22T13:28:29;9.90;;;2.60;;
74777;SDS011;63298;53.164;8.610;2022-10-22T13:30:57;7.90;;;1.85;;
74777;SDS011;63298;53.164;8.610;2022-10-22T13:33:42;3.70;;;2.08;;
74777;SDS011;63298;53.164;8.610;2022-10-22T13:36:11;4.60;;;2.40;;
74777;SDS011;63298;53.164;8.610;2022-10-22T13:38:40;7.82;;;2.33;;
74777;SDS011;63298;53.164;8.610;2022-10-22T13:41:17;6.13;;;2.13;;
74777;SDS011;63298;53.164;8.610;2022-10-22T13:43:43;3.95;;;2.10;;
74777;SDS011;63298;53.164;8.610;2022-10-22T13:46:09;3.78;;;2.17;;
74777;SDS011;63298;53.164;8.610;2022-10-22T13:48:35;4.85;;;1.95;;
74777;SDS011;63298;53.164;8.610;2022-10-22T13:51:00;9.93;;;2.45;;
74777;SDS011;63298;53.164;8.610;2022-10-22T13:53:26;6.97;;;2.08;;
74777;SDS011;63298;53.164;8.610;2022-10-22T13:55:53;10.18;;;2.80;;
74777;SDS011;63298;53.164;8.610;2022-10-22T13:58:19;5.25;;;2.30;;
74777;SDS011;63298;53.164;8.610;2022-10-22T14:00:48;8.02;;;2.33;;
74777;SDS011;63298;53.164;8.610;2022-10-22T14:03:18;6.07;;;2.40;;
74777;SDS011;63298;53.164;8.610;2022-10-22T14:05:45;6.85;;;2.63;;
74777;SDS011;63298;53.164;8.610;2022-10-22T14:08:13;7.60;;;1.92;;
74777;SDS011;63298;53.164;8.610;2022-10-22T14:10:41;4.43;;;2.10;;
74777;SDS011;63298;53.164;8.610;2022-10-22T14:13:12;10.10;;;1.90;;
74777;SDS011;63298;53.164;8.610;2022-10-22T14:15:38;2.85;;;2.00;;
74777;SDS011;63298;53.164;8.610;2022-10-22T14:18:05;4.57;;;2.13;;
74777;SDS011;63298;53.164;8.610;2022-10-22T14:20:35;4.03;;;2.05;;
74777;SDS011;63298;53.164;8.610;2022-10-22T14:23:14;2.22;;;1.55;;
74777;SDS011;63298;53.164;8.610;2022-10-22T14:25:45;4.93;;;1.92;;
74777;SDS011;63298;53.164;8.610;2022-10-22T14:28:10;4.63;;;1.98;;
74777;SDS011;63298;53.164;8.610;2022-10-22T14:30:36;5.85;;;2.60;;
74777;SDS011;63298;53.164;8.610;2022-10-22T14:33:13;2.40;;;1.80;;
74777;SDS011;63298;53.164;8.610;2022-10-22T14:35:42;5.03;;;2.47;;
74777;SDS011;63298;53.164;8.610;2022-10-22T14:38:07;5.05;;;2.10;;
74777;SDS011;63298;53.164;8.610;2022-10-22T14:40:33;8.07;;;2.10;;
74777;SDS011;63298;53.164;8.610;2022-10-22T14:42:58;6.15;;;2.03;;
74777;SDS011;63298;53.164;8.610;2022-10-22T14:45:25;6.65;;;2.40;;
74777;SDS011;63298;53.164;8.610;2022-10-22T14:47:51;9.32;;;4.05;;
74777;SDS011;63298;53.164;8.610;2022-10-22T14:50:17;7.72;;;1.90;;
74777;SDS011;63298;53.164;8.610;2022-10-22T14:52:43;8.05;;;5.00;;
74777;SDS011;63298;53.164;8.610;2022-10-22T14:55:10;8.65;;;2.45;;
74777;SDS011;63298;53.164;8.610;2022-10-22T14:57:36;8.82;;;3.55;;
74777;SDS011;63298;53.164;8.610;2022-10-22T15:00:03;8.80;;;3.28;;
74777;SDS011;63298;53.164;8.610;2022-10-22T15:02:31;12.75;;;3.83;;
74777;SDS011;63298;53.164;8.610;2022-10-22T15:04:56;8.95;;;3.53;;
74777;SDS011;63298;53.164;8.610;2022-10-22T15:07:22;7.28;;;2.97;;
74777;SDS011;63298;53.164;8.610;2022-10-22T15:09:47;10.50;;;3.60;;
74777;SDS011;63298;53.164;8.610;2022-10-22T15:12:13;4.25;;;2.80;;
74777;SDS011;63298;53.164;8.610;2022-10-22T15:14:38;8.75;;;2.80;;
74777;SDS011;63298;53.164;8.610;2022-10-22T15:17:04;9.82;;;2.60;;
74777;SDS011;63298;53.164;8.610;2022-10-22T15:19:29;10.32;;;2.95;;
74777;SDS011;63298;53.164;8.610;2022-10-22T15:21:55;7.00;;;2.70;;
74777;SDS011;63298;53.164;8.610;2022-10-22T15:24:20;10.60;;;2.20;;
74777;SDS011;63298;53.164;8.610;2022-10-22T15:26:46;9.68;;;2.53;;
74777;SDS011;63298;53.164;8.610;2022-10-22T15:29:11;8.52;;;2.33;;
74777;SDS011;63298;53.164;8.610;2022-10-22T15:31:41;5.30;;;1.98;;
74777;SDS011;63298;53.164;8.610;2022-10-22T15:34:08;8.70;;;2.05;;
74777;SDS011;63298;53.164;8.610;2022-10-22T15:36:33;3.55;;;2.25;;
74777;SDS011;63298;53.164;8.610;2022-10-22T15:38:59;5.00;;;1.92;;
74777;SDS011;63298;53.164;8.610;2022-10-22T15:41:31;4.80;;;2.28;;
74777;SDS011;63298;53.164;8.610;2022-10-22T15:43:56;3.55;;;2.13;;
74777;SDS011;63298;53.164;8.610;2022-10-22T15:46:21;6.88;;;2.15;;
74777;SDS011;63298;53.164;8.610;2022-10-22T15:48:47;4.63;;;2.28;;
74777;SDS011;63298;53.164;8.610;2022-10-22T15:51:13;5.63;;;2.50;;
74777;SDS011;63298;53.164;8.610;2022-10-22T15:53:40;7.25;;;2.72;;
74777;SDS011;63298;53.164;8.610;2022-10-22T15:56:07;7.25;;;2.50;;
74777;SDS011;63298;53.164;8.610;2022-10-22T15:58:33;6.88;;;2.15;;
74777;SDS011;63298;53.164;8.610;2022-10-22T16:01:03;13.02;;;2.67;;
74777;SDS011;63298;53.164;8.610;2022-10-22T16:03:30;6.63;;;2.63;;
74777;SDS011;63298;53.164;8.610;2022-10-22T16:05:55;4.60;;;2.08;;
74777;SDS011;63298;53.164;8.610;2022-10-22T16:08:21;5.05;;;2.47;;
74777;SDS011;63298;53.164;8.610;2022-10-22T16:10:47;10.15;;;2.08;;
74777;SDS011;63298;53.164;8.610;2022-10-22T16:13:13;7.40;;;2.92;;
74777;SDS011;63298;53.164;8.610;2022-10-22T16:15:40;6.47;;;3.13;;
74777;SDS011;63298;53.164;8.610;2022-10-22T16:18:05;9.93;;;2.60;;
74777;SDS011;63298;53.164;8.610;2022-10-22T16:20:31;5.43;;;2.40;;
74777;SDS011;63298;53.164;8.610;2022-10-22T16:22:56;7.35;;;3.28;;
74777;SDS011;63298;53.164;8.610;2022-10-22T16:25:22;6.60;;;2.40;;
74777;SDS011;63298;53.164;8.610;2022-10-22T16:27:48;8.32;;;2.78;;
74777;SDS011;63298;53.164;8.610;2022-10-22T16:30:14;5.72;;;2.58;;
74777;SDS011;63298;53.164;8.610;2022-10-22T16:32:39;6.50;;;2.78;;
74777;SDS011;63298;53.164;8.610;2022-10-22T16:35:05;8.60;;;3.08;;
74777;SDS011;63298;53.164;8.610;2022-10-22T16:37:31;4.53;;;2.47;;
74777;SDS011;63298;53.164;8.610;2022-10-22T16:39:56;5.43;;;2.97;;
74777;SDS011;63298;53.164;8.610;2022-10-22T16:42:21;6.57;;;2.23;;
74777;SDS011;63298;53.164;8.610;2022-10-22T16:44:47;6.28;;;2.80;;
74777;SDS011;63298;53.164;8.610;2022-10-22T16:47:12;6.00;;;2.67;;
74777;SDS011;63298;53.164;8.610;2022-10-22T16:49:37;7.15;;;2.63;;